createdAt,value
2018-12-10T00:01:11.385Z,6.2
2018-12-10T00:06:11.313Z,6.2
2018-12-10T00:11:11.361Z,6.2
2018-12-10T00:16:11.307Z,6.2
2018-12-10T00:21:11.303Z,6.3
2018-12-10T00:26:11.348Z,6.3
2018-12-10T00:31:11.382Z,6.3
2018-12-10T00:36:11.304Z,6.3
2018-12-10T00:41:11.342Z,6.3
2018-12-10T00:46:11.304Z,6.2
2018-12-10T00:51:11.417Z,6.2
2018-12-10T00:56:11.189Z,6.2
2018-12-10T01:01:11.191Z,6.2
2018-12-10T01:06:11.176Z,6.2
2018-12-10T01:11:11.336Z,6.2
2018-12-10T01:16:11.374Z,6.2
2018-12-10T01:21:11.164Z,6.2
2018-12-10T01:26:11.340Z,6.2
2018-12-10T01:31:11.381Z,6.2
2018-12-10T01:36:11.416Z,6.2
2018-12-10T01:41:11.335Z,6.2
2018-12-10T01:46:11.366Z,6.2
2018-12-10T01:51:11.412Z,6.2
2018-12-10T01:56:11.473Z,6.1
2018-12-10T02:01:11.379Z,6.1
2018-12-10T02:06:11.426Z,6
2018-12-10T02:11:11.241Z,6
2018-12-10T02:16:11.370Z,6
2018-12-10T02:21:11.419Z,5.9
2018-12-10T02:26:11.446Z,5.9
2018-12-10T02:31:11.369Z,5.9
2018-12-10T02:36:11.405Z,5.9
2018-12-10T02:41:11.463Z,5.9
2018-12-10T02:46:11.327Z,5.9
2018-12-10T02:51:11.404Z,5.9
2018-12-10T02:56:11.446Z,5.9
2018-12-10T03:01:11.368Z,5.9
2018-12-10T03:06:11.412Z,5.9
2018-12-10T03:11:11.462Z,5.9
2018-12-10T03:16:11.489Z,6
2018-12-10T03:21:11.405Z,6
2018-12-10T03:26:11.463Z,6
2018-12-10T03:31:11.473Z,6
2018-12-10T03:36:11.234Z,6
2018-12-10T03:41:11.477Z,5.9
2018-12-10T03:46:11.498Z,5.8
2018-12-10T03:51:11.421Z,5.7
2018-12-10T03:56:11.474Z,5.6
2018-12-10T04:01:11.304Z,5.5
2018-12-10T04:06:11.300Z,5.4
2018-12-10T04:11:11.292Z,5.3
2018-12-10T04:16:11.323Z,5.3
2018-12-10T04:21:11.426Z,5.2
2018-12-10T04:26:11.311Z,5.1
2018-12-10T04:31:11.498Z,5
2018-12-10T04:36:11.438Z,4.9
2018-12-10T04:41:11.454Z,4.8
2018-12-10T04:46:11.491Z,4.8
2018-12-10T04:51:11.474Z,4.8
2018-12-10T04:56:11.459Z,4.8
2018-12-10T05:01:11.495Z,4.8
2018-12-10T05:06:11.454Z,4.8
2018-12-10T05:11:11.574Z,4.8
2018-12-10T05:16:11.287Z,4.8
2018-12-10T05:21:11.347Z,4.8
2018-12-10T05:26:11.324Z,4.8
2018-12-10T05:31:11.334Z,4.7
2018-12-10T05:36:11.540Z,4.7
2018-12-10T05:41:11.584Z,4.7
2018-12-10T05:46:11.491Z,4.7
2018-12-10T05:51:11.491Z,4.7
2018-12-10T05:56:11.573Z,4.7
2018-12-10T06:01:11.492Z,4.7
2018-12-10T06:06:11.353Z,4.7
2018-12-10T06:11:11.351Z,4.7
2018-12-10T06:16:11.376Z,4.7
2018-12-10T06:21:11.522Z,4.7
2018-12-10T06:26:11.370Z,4.7
2018-12-10T06:31:11.353Z,4.8
2018-12-10T06:36:11.387Z,4.8
2018-12-10T06:41:11.571Z,4.8
2018-12-10T06:46:11.574Z,4.8
2018-12-10T06:51:11.339Z,4.8
2018-12-10T06:56:11.566Z,4.8
2018-12-10T07:01:11.387Z,4.9
2018-12-10T07:06:11.523Z,4.9
2018-12-10T07:11:11.560Z,4.9
2018-12-10T07:16:11.609Z,4.9
2018-12-10T07:21:11.520Z,4.9
2018-12-10T07:26:11.568Z,4.9
2018-12-10T07:31:11.403Z,4.9
2018-12-10T07:36:11.671Z,4.9
2018-12-10T07:41:11.422Z,4.9
2018-12-10T07:46:11.601Z,4.8
2018-12-10T07:51:11.422Z,4.9
2018-12-10T07:56:11.553Z,4.9
2018-12-10T08:01:12.230Z,4.9
2018-12-10T08:06:11.642Z,4.9
2018-12-10T08:11:11.522Z,4.8
2018-12-10T08:16:11.433Z,4.8
2018-12-10T08:21:11.643Z,4.7
2018-12-10T08:26:11.552Z,4.8
2018-12-10T08:31:11.425Z,4.8
2018-12-10T08:36:11.438Z,4.8
2018-12-10T08:41:11.681Z,4.8
2018-12-10T08:46:11.421Z,4.7
2018-12-10T08:51:11.505Z,4.6
2018-12-10T08:56:11.465Z,4.5
2018-12-10T09:01:11.583Z,4.6
2018-12-10T09:06:11.450Z,4.5
2018-12-10T09:11:11.666Z,4.5
2018-12-10T09:16:11.590Z,4.4
2018-12-10T09:21:11.467Z,4.5
2018-12-10T09:26:11.587Z,4.5
2018-12-10T09:31:11.468Z,4.6
2018-12-10T09:36:11.646Z,4.6
2018-12-10T09:41:11.686Z,4.7
2018-12-10T09:46:11.485Z,4.7
2018-12-10T09:51:11.624Z,4.7
2018-12-10T09:56:11.680Z,4.7
2018-12-10T10:01:11.711Z,4.8
2018-12-10T10:06:11.619Z,5
2018-12-10T10:11:11.596Z,5
2018-12-10T10:16:11.689Z,5.1
2018-12-10T10:21:11.634Z,5.1
2018-12-10T10:26:11.668Z,5.1
2018-12-10T10:31:11.697Z,5.2
2018-12-10T10:36:11.486Z,5.2
2018-12-10T10:41:11.507Z,5.3
2018-12-10T10:46:11.443Z,5.3
2018-12-10T10:51:11.704Z,5.3
2018-12-10T10:56:11.657Z,5.2
2018-12-10T11:01:11.694Z,5.2
2018-12-10T11:06:11.722Z,5.3
2018-12-10T11:11:11.655Z,5.3
2018-12-10T11:16:11.528Z,5.3
2018-12-10T11:21:11.515Z,5.3
2018-12-10T11:26:11.513Z,5.3
2018-12-10T11:31:17.145Z,5.4
2018-12-10T11:36:11.644Z,5.3
2018-12-10T11:41:11.657Z,5.4
2018-12-10T11:46:11.689Z,5.4
2018-12-10T11:51:11.736Z,5.4
2018-12-10T11:56:11.665Z,5.5
2018-12-10T12:01:11.491Z,5.5
2018-12-10T12:06:11.730Z,5.5
2018-12-10T12:11:11.777Z,5.5
2018-12-10T12:16:11.581Z,5.5
2018-12-10T12:21:11.540Z,5.6
2018-12-10T12:26:11.763Z,5.5
2018-12-10T12:31:11.515Z,5.6
2018-12-10T12:36:11.722Z,5.5
2018-12-10T12:41:11.679Z,5.5
2018-12-10T12:46:11.806Z,5.6
2018-12-10T12:51:11.725Z,5.6
2018-12-10T12:56:11.801Z,5.6
2018-12-10T13:01:11.774Z,5.6
2018-12-10T13:06:11.701Z,5.6
2018-12-10T13:11:11.773Z,5.6
2018-12-10T13:16:11.567Z,5.6
2018-12-10T13:21:11.744Z,5.5
2018-12-10T13:26:11.782Z,5.5
2018-12-10T13:31:11.717Z,5.5
2018-12-10T13:36:11.719Z,5.6
2018-12-10T13:41:11.761Z,5.6
2018-12-10T13:46:11.608Z,5.6
2018-12-10T13:51:11.724Z,5.5
2018-12-10T13:56:11.757Z,5.5
2018-12-10T14:01:11.581Z,5.4
2018-12-10T14:06:11.725Z,5.4
2018-12-10T14:11:11.630Z,5.4
2018-12-10T14:16:11.605Z,5.3
2018-12-10T14:21:11.730Z,5.2
2018-12-10T14:26:11.759Z,5.2
2018-12-10T14:31:11.801Z,5
2018-12-10T14:36:11.852Z,4.5
2018-12-10T14:41:11.743Z,4.3
2018-12-10T14:46:11.737Z,3.6
2018-12-10T14:51:11.634Z,3.6
2018-12-10T14:56:11.626Z,3.4
2018-12-10T15:01:11.791Z,2.7
2018-12-10T15:06:11.625Z,2.7
2018-12-10T15:11:11.639Z,2.6
2018-12-10T15:16:11.790Z,2.5
2018-12-10T15:21:11.831Z,2.5
2018-12-10T15:26:11.636Z,2.5
2018-12-10T15:31:11.798Z,2.4
2018-12-10T15:36:11.780Z,2.4
2018-12-10T15:41:11.596Z,2.4
2018-12-10T15:46:11.787Z,2.4
2018-12-10T15:51:11.842Z,2.4
2018-12-10T15:56:11.814Z,2.3
2018-12-10T16:01:11.790Z,2.3
2018-12-10T16:06:11.822Z,2.2
2018-12-10T16:11:11.874Z,2.2
2018-12-10T16:16:11.922Z,2.2
2018-12-10T16:21:11.684Z,2.2
2018-12-10T16:26:11.678Z,2.3
2018-12-10T16:31:11.668Z,2.3
2018-12-10T16:36:11.683Z,2.4
2018-12-10T16:41:11.718Z,2.4
2018-12-10T16:46:11.673Z,2.5
2018-12-10T16:51:11.658Z,2.5
2018-12-10T16:56:11.747Z,2.5
2018-12-10T17:01:11.705Z,2.5
2018-12-10T17:06:11.714Z,2.5
2018-12-10T17:11:11.744Z,2.5
2018-12-10T17:16:11.698Z,2.6
2018-12-10T17:21:11.687Z,2.7
2018-12-10T17:26:11.696Z,2.7
2018-12-10T17:31:12.635Z,2.7
2018-12-10T17:36:11.779Z,2.7
2018-12-10T17:41:11.783Z,2.6
2018-12-10T17:46:11.761Z,2.6
2018-12-10T17:51:11.784Z,2.6
2018-12-10T17:56:11.757Z,2.6
2018-12-10T18:01:11.741Z,2.6
2018-12-10T18:06:11.667Z,2.7
2018-12-10T18:11:11.722Z,2.7
2018-12-10T18:16:11.764Z,2.7
2018-12-10T18:21:12.008Z,2.7
2018-12-10T18:26:11.800Z,2.7
2018-12-10T18:31:11.754Z,2.7
2018-12-10T18:36:11.805Z,2.8
2018-12-10T18:41:11.749Z,2.8
2018-12-10T18:46:11.764Z,2.8
2018-12-10T18:51:11.770Z,2.9
2018-12-10T18:56:11.783Z,2.9
2018-12-10T19:01:11.759Z,2.9
2018-12-10T19:06:11.861Z,2.9
2018-12-10T19:11:11.780Z,2.9
2018-12-10T19:16:11.723Z,2.9
2018-12-10T19:21:11.788Z,2.9
2018-12-10T19:26:11.807Z,2.9
2018-12-10T19:31:11.785Z,2.9
2018-12-10T19:36:11.801Z,2.9
2018-12-10T19:41:11.826Z,3
2018-12-10T19:46:11.744Z,3
2018-12-10T19:51:11.800Z,3.1
2018-12-10T19:56:11.842Z,3.1
2018-12-10T20:01:11.906Z,3.2
2018-12-10T20:06:11.843Z,3.2
2018-12-10T20:11:11.838Z,3.3
2018-12-10T20:16:11.890Z,3.3
2018-12-10T20:21:11.805Z,3.3
2018-12-10T20:26:11.834Z,3.4
2018-12-10T20:31:12.034Z,3.4
2018-12-10T20:36:11.821Z,3.4
2018-12-10T20:41:11.943Z,3.4
2018-12-10T20:46:11.824Z,3.4
2018-12-10T20:51:11.949Z,3.1
2018-12-10T20:56:11.912Z,2.7
2018-12-10T21:01:11.998Z,2.5
2018-12-10T21:06:11.817Z,2.2
2018-12-10T21:11:12.279Z,2.3
2018-12-10T21:16:11.854Z,2.1
2018-12-10T21:21:11.883Z,2.1
2018-12-10T21:26:11.837Z,2.1
2018-12-10T21:31:11.805Z,2.1
2018-12-10T21:36:11.843Z,2.1
2018-12-10T21:41:11.839Z,2
2018-12-10T21:46:11.836Z,2
2018-12-10T21:51:11.843Z,2
2018-12-10T21:56:11.858Z,2
2018-12-10T22:01:11.864Z,2
2018-12-10T22:06:11.852Z,2
2018-12-10T22:11:11.825Z,2.1
2018-12-10T22:16:11.910Z,2.1
2018-12-10T22:21:12.053Z,2.1
2018-12-10T22:26:11.854Z,2.1
2018-12-10T22:31:12.016Z,2.1
2018-12-10T22:36:12.058Z,2.1
2018-12-10T22:41:11.879Z,2.2
2018-12-10T22:46:12.020Z,2.2
2018-12-10T22:51:12.061Z,2.2
2018-12-10T22:56:11.873Z,2.3
2018-12-10T23:01:11.887Z,2.3
2018-12-10T23:06:11.985Z,2.3
2018-12-10T23:11:12.099Z,2.3
2018-12-10T23:16:12.009Z,2.3
2018-12-10T23:21:11.888Z,2.3
2018-12-10T23:26:12.095Z,2.3
2018-12-10T23:31:11.967Z,2.3
2018-12-10T23:36:12.003Z,2.4
2018-12-10T23:41:12.075Z,2.4
2018-12-10T23:46:12.099Z,2.4
2018-12-10T23:51:12.072Z,2.4
2018-12-10T23:56:12.099Z,2.4
